sensor_id;sensor_type;location;lat;lon;timestamp;pressure;altitude;pressure_sealevel;temperature;humidity
41632;BME280;37452;51.938;4.624;2023-08-07T00:01:25;76530.91;;;-142.75;100.00
41632;BME280;37452;51.938;4.624;2023-08-07T00:03:50;76519.13;;;-142.75;100.00
41632;BME280;37452;51.938;4.624;2023-08-07T00:06:15;76527.00;;;-142.75;100.00
41632;BME280;37452;51.938;4.624;2023-08-07T00:08:41;76534.84;;;-142.75;100.00
41632;BME280;37452;51.938;4.624;2023-08-07T00:11:10;76532.88;;;-142.75;100.00
41632;BME280;37452;51.938;4.624;2023-08-07T00:13:36;76530.91;;;-142.75;100.00
41632;BME280;37452;51.938;4.624;2023-08-07T00:16:01;76530.91;;;-142.75;100.00
41632;BME280;37452;51.938;4.624;2023-08-07T00:18:28;76548.63;;;-142.75;100.00
41632;BME280;37452;51.938;4.624;2023-08-07T00:20:53;76550.59;;;-142.75;100.00
41632;BME280;37452;51.938;4.624;2023-08-07T00:23:18;76552.56;;;-142.75;100.00
41632;BME280;37452;51.938;4.624;2023-08-07T00:25:44;76558.47;;;-142.75;100.00
41632;BME280;37452;51.938;4.624;2023-08-07T00:28:09;76566.34;;;-142.75;100.00
41632;BME280;37452;51.938;4.624;2023-08-07T00:30:34;76584.06;;;-142.75;100.00
41632;BME280;37452;51.938;4.624;2023-08-07T00:33:00;76605.72;;;-142.75;100.00
41632;BME280;37452;51.938;4.624;2023-08-07T00:35:25;76584.06;;;-142.75;100.00
41632;BME280;37452;51.938;4.624;2023-08-07T00:37:50;76580.13;;;-142.75;100.00
41632;BME280;37452;51.938;4.624;2023-08-07T00:40:17;76580.13;;;-142.75;100.00
41632;BME280;37452;51.938;4.624;2023-08-07T00:42:42;76584.06;;;-142.75;100.00
41632;BME280;37452;51.938;4.624;2023-08-07T00:45:08;76597.84;;;-142.75;100.00
41632;BME280;37452;51.938;4.624;2023-08-07T00:47:33;76593.91;;;-142.75;100.00
41632;BME280;37452;51.938;4.624;2023-08-07T00:49:59;76601.78;;;-142.75;100.00
41632;BME280;37452;51.938;4.624;2023-08-07T00:52:25;76593.91;;;-142.75;100.00
41632;BME280;37452;51.938;4.624;2023-08-07T00:54:50;76593.91;;;-142.75;100.00
41632;BME280;37452;51.938;4.624;2023-08-07T00:57:16;76593.91;;;-142.75;100.00
41632;BME280;37452;51.938;4.624;2023-08-07T00:59:43;76556.50;;;-142.75;100.00
41632;BME280;37452;51.938;4.624;2023-08-07T01:02:09;76548.63;;;-142.75;100.00
41632;BME280;37452;51.938;4.624;2023-08-07T01:04:35;76538.78;;;-142.75;100.00
41632;BME280;37452;51.938;4.624;2023-08-07T01:07:00;76538.78;;;-142.75;100.00
41632;BME280;37452;51.938;4.624;2023-08-07T01:09:26;76538.78;;;-142.75;100.00
41632;BME280;37452;51.938;4.624;2023-08-07T01:14:35;76546.66;;;-142.75;100.00
41632;BME280;37452;51.938;4.624;2023-08-07T01:17:09;76534.84;;;-142.75;100.00
41632;BME280;37452;51.938;4.624;2023-08-07T01:19:35;76532.88;;;-142.75;100.00
41632;BME280;37452;51.938;4.624;2023-08-07T01:22:12;76536.84;;;-142.75;100.00
41632;BME280;37452;51.938;4.624;2023-08-07T01:24:40;76527.00;;;-142.75;100.00
41632;BME280;37452;51.938;4.624;2023-08-07T01:30:11;76487.63;;;-142.75;100.00
41632;BME280;37452;51.938;4.624;2023-08-07T01:33:07;76513.22;;;-142.75;100.00
41632;BME280;37452;51.938;4.624;2023-08-07T01:35:43;76534.84;;;-142.75;100.00
41632;BME280;37452;51.938;4.624;2023-08-07T01:38:10;76566.34;;;-142.75;100.00
41632;BME280;37452;51.938;4.624;2023-08-07T01:40:37;76589.97;;;-142.75;100.00
41632;BME280;37452;51.938;4.624;2023-08-07T01:43:04;76591.94;;;-142.75;100.00
41632;BME280;37452;51.938;4.624;2023-08-07T01:45:29;76586.03;;;-142.75;100.00
41632;BME280;37452;51.938;4.624;2023-08-07T01:47:55;76599.81;;;-142.75;100.00
41632;BME280;37452;51.938;4.624;2023-08-07T01:50:21;76593.91;;;-142.75;100.00
41632;BME280;37452;51.938;4.624;2023-08-07T01:52:47;76595.88;;;-142.75;100.00
41632;BME280;37452;51.938;4.624;2023-08-07T01:55:16;76597.84;;;-142.75;100.00
41632;BME280;37452;51.938;4.624;2023-08-07T01:57:42;76609.66;;;-142.75;100.00
41632;BME280;37452;51.938;4.624;2023-08-07T02:00:08;76613.59;;;-142.75;100.00
41632;BME280;37452;51.938;4.624;2023-08-07T02:02:34;76601.78;;;-142.75;100.00
41632;BME280;37452;51.938;4.624;2023-08-07T02:05:00;76617.53;;;-142.75;100.00
41632;BME280;37452;51.938;4.624;2023-08-07T02:07:25;76627.38;;;-142.75;100.00
41632;BME280;37452;51.938;4.624;2023-08-07T02:09:50;76621.47;;;-142.75;100.00
41632;BME280;37452;51.938;4.624;2023-08-07T02:12:16;76625.41;;;-142.75;100.00
41632;BME280;37452;51.938;4.624;2023-08-07T02:14:41;76629.34;;;-142.75;100.00
41632;BME280;37452;51.938;4.624;2023-08-07T02:17:06;76633.28;;;-142.75;100.00
41632;BME280;37452;51.938;4.624;2023-08-07T02:19:32;76625.41;;;-142.75;100.00
41632;BME280;37452;51.938;4.624;2023-08-07T02:21:57;76625.41;;;-142.75;100.00
41632;BME280;37452;51.938;4.624;2023-08-07T02:24:23;76627.38;;;-142.75;100.00
41632;BME280;37452;51.938;4.624;2023-08-07T02:26:48;76625.41;;;-142.75;100.00
41632;BME280;37452;51.938;4.624;2023-08-07T02:29:13;76603.75;;;-142.75;100.00
41632;BME280;37452;51.938;4.624;2023-08-07T02:31:39;76601.78;;;-142.75;100.00
41632;BME280;37452;51.938;4.624;2023-08-07T02:34:04;76627.38;;;-142.75;100.00
41632;BME280;37452;51.938;4.624;2023-08-07T02:36:29;76631.31;;;-142.75;100.00
41632;BME280;37452;51.938;4.624;2023-08-07T02:38:55;76631.31;;;-142.75;100.00
41632;BME280;37452;51.938;4.624;2023-08-07T02:41:20;76633.28;;;-142.75;100.00
41632;BME280;37452;51.938;4.624;2023-08-07T02:43:46;76617.53;;;-142.75;100.00
41632;BME280;37452;51.938;4.624;2023-08-07T02:46:11;76621.47;;;-142.75;100.00
41632;BME280;37452;51.938;4.624;2023-08-07T02:48:36;76621.47;;;-142.75;100.00
41632;BME280;37452;51.938;4.624;2023-08-07T02:51:02;76629.34;;;-142.75;100.00
41632;BME280;37452;51.938;4.624;2023-08-07T02:53:28;76627.38;;;-142.75;100.00
41632;BME280;37452;51.938;4.624;2023-08-07T02:55:53;76635.25;;;-142.75;100.00
41632;BME280;37452;51.938;4.624;2023-08-07T02:58:18;76611.63;;;-142.75;100.00
41632;BME280;37452;51.938;4.624;2023-08-07T03:00:44;76625.41;;;-142.75;100.00
41632;BME280;37452;51.938;4.624;2023-08-07T03:03:09;76621.47;;;-142.75;100.00
41632;BME280;37452;51.938;4.624;2023-08-07T03:05:35;76603.75;;;-142.75;100.00
41632;BME280;37452;51.938;4.624;2023-08-07T03:08:00;76584.06;;;-142.75;100.00
41632;BME280;37452;51.938;4.624;2023-08-07T03:10:25;76570.28;;;-142.75;100.00
41632;BME280;37452;51.938;4.624;2023-08-07T03:12:51;76562.41;;;-142.75;100.00
41632;BME280;37452;51.938;4.624;2023-08-07T03:15:16;76570.28;;;-142.75;100.00
41632;BME280;37452;51.938;4.624;2023-08-07T03:17:42;76586.03;;;-142.75;100.00
41632;BME280;37452;51.938;4.624;2023-08-07T03:20:07;76593.91;;;-142.75;100.00
41632;BME280;37452;51.938;4.624;2023-08-07T03:22:33;76578.16;;;-142.75;100.00
41632;BME280;37452;51.938;4.624;2023-08-07T03:24:59;76574.22;;;-142.75;100.00
41632;BME280;37452;51.938;4.624;2023-08-07T03:27:24;76578.16;;;-142.75;100.00
41632;BME280;37452;51.938;4.624;2023-08-07T03:29:49;76578.16;;;-142.75;100.00
41632;BME280;37452;51.938;4.624;2023-08-07T03:32:15;76576.19;;;-142.75;100.00
41632;BME280;37452;51.938;4.624;2023-08-07T03:34:41;76586.03;;;-142.75;100.00
41632;BME280;37452;51.938;4.624;2023-08-07T03:37:06;76574.22;;;-142.75;100.00
41632;BME280;37452;51.938;4.624;2023-08-07T03:39:31;76586.03;;;-142.75;100.00
41632;BME280;37452;51.938;4.624;2023-08-07T03:41:57;76586.03;;;-142.75;100.00
41632;BME280;37452;51.938;4.624;2023-08-07T03:44:22;76578.16;;;-142.75;100.00
41632;BME280;37452;51.938;4.624;2023-08-07T03:46:47;76589.97;;;-142.75;100.00
41632;BME280;37452;51.938;4.624;2023-08-07T03:49:13;76588.00;;;-142.75;100.00
41632;BME280;37452;51.938;4.624;2023-08-07T03:51:39;76593.91;;;-142.75;100.00
41632;BME280;37452;51.938;4.624;2023-08-07T03:54:04;76578.16;;;-142.75;100.00
41632;BME280;37452;51.938;4.624;2023-08-07T03:56:30;76574.22;;;-142.75;100.00
41632;BME280;37452;51.938;4.624;2023-08-07T03:59:01;76582.09;;;-142.75;100.00
41632;BME280;37452;51.938;4.624;2023-08-07T04:01:26;76582.09;;;-142.75;100.00
41632;BME280;37452;51.938;4.624;2023-08-07T04:03:52;76584.06;;;-142.75;100.00
41632;BME280;37452;51.938;4.624;2023-08-07T04:06:17;76582.09;;;-142.75;100.00
41632;BME280;37452;51.938;4.624;2023-08-07T04:08:45;76580.13;;;-142.75;100.00
41632;BME280;37452;51.938;4.624;2023-08-07T04:11:10;76588.00;;;-142.75;100.00
41632;BME280;37452;51.938;4.624;2023-08-07T04:13:36;76570.28;;;-142.75;100.00
41632;BME280;37452;51.938;4.624;2023-08-07T04:16:01;76582.09;;;-142.75;100.00
41632;BME280;37452;51.938;4.624;2023-08-07T04:18:29;76589.97;;;-142.75;100.00
41632;BME280;37452;51.938;4.624;2023-08-07T04:20:55;76574.22;;;-142.75;100.00
41632;BME280;37452;51.938;4.624;2023-08-07T04:23:22;76574.22;;;-142.75;100.00
41632;BME280;37452;51.938;4.624;2023-08-07T04:25:48;76560.44;;;-142.75;100.00
41632;BME280;37452;51.938;4.624;2023-08-07T04:28:14;76568.31;;;-142.75;100.00
41632;BME280;37452;51.938;4.624;2023-08-07T04:30:40;76576.19;;;-142.75;100.00
41632;BME280;37452;51.938;4.624;2023-08-07T04:33:06;76566.34;;;-142.75;100.00
41632;BME280;37452;51.938;4.624;2023-08-07T04:35:32;76574.22;;;-142.75;100.00
41632;BME280;37452;51.938;4.624;2023-08-07T04:37:57;76576.19;;;-142.75;100.00
41632;BME280;37452;51.938;4.624;2023-08-07T04:40:23;76591.94;;;-142.75;100.00
41632;BME280;37452;51.938;4.624;2023-08-07T04:42:51;76597.84;;;-142.75;100.00
41632;BME280;37452;51.938;4.624;2023-08-07T04:45:16;76595.88;;;-142.75;100.00
41632;BME280;37452;51.938;4.624;2023-08-07T04:47:42;76613.59;;;-142.75;100.00
41632;BME280;37452;51.938;4.624;2023-08-07T04:50:08;76609.66;;;-142.75;100.00
41632;BME280;37452;51.938;4.624;2023-08-07T04:52:34;76621.47;;;-142.75;100.00
41632;BME280;37452;51.938;4.624;2023-08-07T04:54:59;76625.41;;;-142.75;100.00
41632;BME280;37452;51.938;4.624;2023-08-07T04:57:25;76611.63;;;-142.75;100.00
41632;BME280;37452;51.938;4.624;2023-08-07T04:59:50;76609.66;;;-142.75;100.00
41632;BME280;37452;51.938;4.624;2023-08-07T05:02:16;76617.53;;;-142.75;100.00
41632;BME280;37452;51.938;4.624;2023-08-07T05:04:41;76621.47;;;-142.75;100.00
41632;BME280;37452;51.938;4.624;2023-08-07T05:07:06;76629.34;;;-142.75;100.00
41632;BME280;37452;51.938;4.624;2023-08-07T05:09:32;76619.50;;;-142.75;100.00
41632;BME280;37452;51.938;4.624;2023-08-07T05:11:57;76637.22;;;-142.75;100.00
41632;BME280;37452;51.938;4.624;2023-08-07T05:14:22;76633.28;;;-142.75;100.00
41632;BME280;37452;51.938;4.624;2023-08-07T05:16:48;76641.16;;;-142.75;100.00
41632;BME280;37452;51.938;4.624;2023-08-07T05:19:13;76633.28;;;-142.75;100.00
41632;BME280;37452;51.938;4.624;2023-08-07T05:21:38;76623.44;;;-142.75;100.00
41632;BME280;37452;51.938;4.624;2023-08-07T05:24:04;76649.03;;;-142.75;100.00
41632;BME280;37452;51.938;4.624;2023-08-07T05:26:30;76633.28;;;-142.75;100.00
41632;BME280;37452;51.938;4.624;2023-08-07T05:28:55;76643.13;;;-142.75;100.00
41632;BME280;37452;51.938;4.624;2023-08-07T05:31:23;76633.28;;;-142.75;100.00
41632;BME280;37452;51.938;4.624;2023-08-07T05:33:49;76645.09;;;-142.75;100.00
41632;BME280;37452;51.938;4.624;2023-08-07T05:36:14;76645.09;;;-142.75;100.00
41632;BME280;37452;51.938;4.624;2023-08-07T05:38:42;76652.97;;;-142.75;100.00
41632;BME280;37452;51.938;4.624;2023-08-07T05:41:08;76660.84;;;-142.75;100.00
41632;BME280;37452;51.938;4.624;2023-08-07T05:43:34;76645.09;;;-142.75;100.00
41632;BME280;37452;51.938;4.624;2023-08-07T05:45:59;76637.22;;;-142.75;100.00
41632;BME280;37452;51.938;4.624;2023-08-07T05:48:25;76666.75;;;-142.75;100.00
41632;BME280;37452;51.938;4.624;2023-08-07T05:50:51;76658.88;;;-142.75;100.00
41632;BME280;37452;51.938;4.624;2023-08-07T05:53:19;76641.16;;;-142.75;100.00
41632;BME280;37452;51.938;4.624;2023-08-07T05:55:44;76645.09;;;-142.75;100.00
41632;BME280;37452;51.938;4.624;2023-08-07T05:58:10;76660.84;;;-142.75;100.00
41632;BME280;37452;51.938;4.624;2023-08-07T06:00:35;76658.88;;;-142.75;100.00
41632;BME280;37452;51.938;4.624;2023-08-07T06:03:00;76625.41;;;-142.75;100.00
41632;BME280;37452;51.938;4.624;2023-08-07T06:05:26;76633.28;;;-142.75;100.00
41632;BME280;37452;51.938;4.624;2023-08-07T06:07:51;76617.53;;;-142.75;100.00
41632;BME280;37452;51.938;4.624;2023-08-07T06:10:16;76641.16;;;-142.75;100.00
41632;BME280;37452;51.938;4.624;2023-08-07T06:12:42;76637.22;;;-142.75;100.00
41632;BME280;37452;51.938;4.624;2023-08-07T06:15:07;76619.50;;;-142.75;100.00
41632;BME280;37452;51.938;4.624;2023-08-07T06:17:34;76645.09;;;-142.75;100.00
41632;BME280;37452;51.938;4.624;2023-08-07T06:19:59;76637.22;;;-142.75;100.00
41632;BME280;37452;51.938;4.624;2023-08-07T06:22:24;76629.34;;;-142.75;100.00
41632;BME280;37452;51.938;4.624;2023-08-07T06:24:50;76621.47;;;-142.75;100.00
41632;BME280;37452;51.938;4.624;2023-08-07T06:27:15;76629.34;;;-142.75;100.00
41632;BME280;37452;51.938;4.624;2023-08-07T06:29:40;76641.16;;;-142.75;100.00
41632;BME280;37452;51.938;4.624;2023-08-07T06:32:06;76641.16;;;-142.75;100.00
41632;BME280;37452;51.938;4.624;2023-08-07T06:34:32;76639.19;;;-142.75;100.00
41632;BME280;37452;51.938;4.624;2023-08-07T06:36:57;76619.50;;;-142.75;100.00
41632;BME280;37452;51.938;4.624;2023-08-07T06:39:22;76645.09;;;-142.75;100.00
41632;BME280;37452;51.938;4.624;2023-08-07T06:41:48;76633.28;;;-142.75;100.00
41632;BME280;37452;51.938;4.624;2023-08-07T06:44:13;76625.41;;;-142.75;100.00
41632;BME280;37452;51.938;4.624;2023-08-07T06:46:38;76611.63;;;-142.75;100.00
41632;BME280;37452;51.938;4.624;2023-08-07T06:49:04;76601.78;;;-142.75;100.00
41632;BME280;37452;51.938;4.624;2023-08-07T06:51:29;76607.69;;;-142.75;100.00
41632;BME280;37452;51.938;4.624;2023-08-07T06:53:55;76576.19;;;-142.75;100.00
41632;BME280;37452;51.938;4.624;2023-08-07T06:56:20;76562.41;;;-142.75;100.00
41632;BME280;37452;51.938;4.624;2023-08-07T06:58:45;76534.84;;;-142.75;100.00
41632;BME280;37452;51.938;4.624;2023-08-07T07:01:11;76499.44;;;-142.75;100.00
41632;BME280;37452;51.938;4.624;2023-08-07T07:03:36;76507.31;;;-142.75;100.00
41632;BME280;37452;51.938;4.624;2023-08-07T07:06:02;76495.50;;;-142.75;100.00
41632;BME280;37452;51.938;4.624;2023-08-07T07:08:27;76471.88;;;-142.75;100.00
41632;BME280;37452;51.938;4.624;2023-08-07T07:10:52;76465.97;;;-142.75;100.00
41632;BME280;37452;51.938;4.624;2023-08-07T07:13:18;76456.13;;;-142.75;100.00
41632;BME280;37452;51.938;4.624;2023-08-07T07:15:43;76471.88;;;-142.75;100.00
41632;BME280;37452;51.938;4.624;2023-08-07T07:18:09;76467.94;;;-142.75;100.00
41632;BME280;37452;51.938;4.624;2023-08-07T07:20:34;76481.72;;;-142.75;100.00
41632;BME280;37452;51.938;4.624;2023-08-07T07:22:59;76483.69;;;-142.75;100.00
41632;BME280;37452;51.938;4.624;2023-08-07T07:25:25;76442.34;;;-142.75;100.00
41632;BME280;37452;51.938;4.624;2023-08-07T07:27:50;76448.25;;;-142.75;100.00
41632;BME280;37452;51.938;4.624;2023-08-07T07:30:16;76434.47;;;-142.75;100.00
41632;BME280;37452;51.938;4.624;2023-08-07T07:32:42;76420.69;;;-142.75;100.00
41632;BME280;37452;51.938;4.624;2023-08-07T07:35:07;76393.13;;;-142.75;100.00
41632;BME280;37452;51.938;4.624;2023-08-07T07:37:33;76385.25;;;-142.75;100.00
41632;BME280;37452;51.938;4.624;2023-08-07T07:39:59;76389.19;;;-142.75;100.00
41632;BME280;37452;51.938;4.624;2023-08-07T07:42:24;76412.81;;;-142.75;100.00
41632;BME280;37452;51.938;4.624;2023-08-07T07:44:49;76365.56;;;-142.75;100.00
41632;BME280;37452;51.938;4.624;2023-08-07T07:47:14;76365.56;;;-142.75;100.00
41632;BME280;37452;51.938;4.624;2023-08-07T07:49:46;76316.38;;;-142.75;100.00
41632;BME280;37452;51.938;4.624;2023-08-07T07:52:15;76304.56;;;-142.75;100.00
41632;BME280;37452;51.938;4.624;2023-08-07T07:54:40;76251.41;;;-142.75;100.00
41632;BME280;37452;51.938;4.624;2023-08-07T07:57:06;76361.63;;;-142.75;100.00
41632;BME280;37452;51.938;4.624;2023-08-07T07:59:31;76424.63;;;-142.75;100.00
41632;BME280;37452;51.938;4.624;2023-08-07T08:01:57;76434.47;;;-142.75;100.00
41632;BME280;37452;51.938;4.624;2023-08-07T08:04:22;76406.91;;;-142.75;100.00
41632;BME280;37452;51.938;4.624;2023-08-07T08:06:48;76410.84;;;-142.75;100.00
41632;BME280;37452;51.938;4.624;2023-08-07T08:09:13;76367.53;;;-142.75;100.00
41632;BME280;37452;51.938;4.624;2023-08-07T08:11:39;76347.84;;;-142.75;100.00
41632;BME280;37452;51.938;4.624;2023-08-07T08:14:04;76341.97;;;-142.75;100.00
41632;BME280;37452;51.938;4.624;2023-08-07T08:16:29;76332.13;;;-142.75;100.00
41632;BME280;37452;51.938;4.624;2023-08-07T08:18:55;76314.41;;;-142.75;100.00
41632;BME280;37452;51.938;4.624;2023-08-07T08:21:20;76306.53;;;-142.75;100.00
41632;BME280;37452;51.938;4.624;2023-08-07T08:23:45;76294.72;;;-142.75;100.00
41632;BME280;37452;51.938;4.624;2023-08-07T08:26:11;76310.47;;;-142.75;100.00
41632;BME280;37452;51.938;4.624;2023-08-07T08:28:36;76265.19;;;-142.75;100.00
41632;BME280;37452;51.938;4.624;2023-08-07T08:31:01;76247.47;;;-142.75;100.00
41632;BME280;37452;51.938;4.624;2023-08-07T08:33:27;76243.53;;;-142.75;100.00
41632;BME280;37452;51.938;4.624;2023-08-07T08:35:52;76255.34;;;-142.75;97.26
41632;BME280;37452;51.938;4.624;2023-08-07T08:38:17;76257.31;;;-142.75;93.42
41632;BME280;37452;51.938;4.624;2023-08-07T08:40:45;76263.22;;;-142.75;90.27
41632;BME280;37452;51.938;4.624;2023-08-07T08:43:12;76243.53;;;-142.75;93.89
41632;BME280;37452;51.938;4.624;2023-08-07T08:45:39;76198.28;;;-142.75;93.56
41632;BME280;37452;51.938;4.624;2023-08-07T08:48:07;76200.25;;;-142.75;92.26
41632;BME280;37452;51.938;4.624;2023-08-07T08:50:37;76215.97;;;-142.75;90.56
41632;BME280;37452;51.938;4.624;2023-08-07T08:53:04;76194.34;;;-142.75;94.07
41632;BME280;37452;51.938;4.624;2023-08-07T08:55:30;76168.75;;;-142.75;96.67
41632;BME280;37452;51.938;4.624;2023-08-07T08:57:57;76154.97;;;-142.75;94.03
41632;BME280;37452;51.938;4.624;2023-08-07T09:00:26;76178.59;;;-142.75;88.96
41632;BME280;37452;51.938;4.624;2023-08-07T09:02:52;76204.16;;;-142.75;86.76
41632;BME280;37452;51.938;4.624;2023-08-07T09:05:19;76158.91;;;-142.75;86.78
41632;BME280;37452;51.938;4.624;2023-08-07T09:07:46;76166.78;;;-142.75;88.04
41632;BME280;37452;51.938;4.624;2023-08-07T09:10:13;76170.72;;;-142.75;86.01
41632;BME280;37452;51.938;4.624;2023-08-07T09:12:48;76123.47;;;-142.75;87.96
41632;BME280;37452;51.938;4.624;2023-08-07T09:15:18;76129.38;;;-142.75;85.08
41632;BME280;37452;51.938;4.624;2023-08-07T09:17:44;76147.09;;;-142.75;84.10
41632;BME280;37452;51.938;4.624;2023-08-07T09:20:11;76204.16;;;-142.75;83.87
41632;BME280;37452;51.938;4.624;2023-08-07T09:22:39;76247.47;;;-142.75;85.65
41632;BME280;37452;51.938;4.624;2023-08-07T09:25:05;76237.63;;;-142.75;88.74
41632;BME280;37452;51.938;4.624;2023-08-07T09:27:31;76208.09;;;-142.75;90.05
41632;BME280;37452;51.938;4.624;2023-08-07T09:29:57;76172.69;;;-142.75;95.19
41632;BME280;37452;51.938;4.624;2023-08-07T09:32:23;76198.28;;;-142.75;90.61
41632;BME280;37452;51.938;4.624;2023-08-07T09:34:50;76239.59;;;-142.75;89.67
41632;BME280;37452;51.938;4.624;2023-08-07T09:37:16;76214.00;;;-142.75;91.31
41632;BME280;37452;51.938;4.624;2023-08-07T09:39:41;76255.34;;;-142.75;90.68
41632;BME280;37452;51.938;4.624;2023-08-07T09:42:16;76225.81;;;-142.75;91.17
41632;BME280;37452;51.938;4.624;2023-08-07T09:44:43;76182.53;;;-142.75;90.68
41632;BME280;37452;51.938;4.624;2023-08-07T09:47:14;76162.84;;;-142.75;86.57
41632;BME280;37452;51.938;4.624;2023-08-07T09:49:40;76145.13;;;-142.75;84.60
41632;BME280;37452;51.938;4.624;2023-08-07T09:52:07;76147.09;;;-142.75;82.14
41632;BME280;37452;51.938;4.624;2023-08-07T09:54:33;76137.25;;;-142.75;82.71
41632;BME280;37452;51.938;4.624;2023-08-07T09:57:01;76133.31;;;-142.75;81.72
41632;BME280;37452;51.938;4.624;2023-08-07T09:59:27;76117.56;;;-142.75;82.82
41632;BME280;37452;51.938;4.624;2023-08-07T10:01:53;76093.94;;;-142.75;81.03
41632;BME280;37452;51.938;4.624;2023-08-07T10:04:21;76046.72;;;-142.75;83.96
41632;BME280;37452;51.938;4.624;2023-08-07T10:06:46;76054.59;;;-142.75;79.60
41632;BME280;37452;51.938;4.624;2023-08-07T10:09:12;76048.69;;;-142.75;78.02
41632;BME280;37452;51.938;4.624;2023-08-07T10:11:38;76013.25;;;-142.75;79.08
41632;BME280;37452;51.938;4.624;2023-08-07T10:14:05;76034.91;;;-142.75;76.96
41632;BME280;37452;51.938;4.624;2023-08-07T10:16:30;76025.06;;;-142.75;78.04
41632;BME280;37452;51.938;4.624;2023-08-07T10:18:57;76021.13;;;-142.75;77.71
41632;BME280;37452;51.938;4.624;2023-08-07T10:21:23;76009.31;;;-142.75;76.96
41632;BME280;37452;51.938;4.624;2023-08-07T10:23:52;75999.47;;;-142.75;76.26
41632;BME280;37452;51.938;4.624;2023-08-07T10:26:20;75985.69;;;-142.75;75.98
41632;BME280;37452;51.938;4.624;2023-08-07T10:28:48;75979.78;;;-142.75;74.71
41632;BME280;37452;51.938;4.624;2023-08-07T10:31:15;75967.97;;;-142.75;75.51
41632;BME280;37452;51.938;4.624;2023-08-07T10:33:41;75954.22;;;-142.75;77.29
41632;BME280;37452;51.938;4.624;2023-08-07T10:36:09;75944.38;;;-142.75;77.23
41632;BME280;37452;51.938;4.624;2023-08-07T10:38:35;75948.31;;;-142.75;76.76
41632;BME280;37452;51.938;4.624;2023-08-07T10:43:26;75948.31;;;-142.75;73.68
41632;BME280;37452;51.938;4.624;2023-08-07T10:45:53;75977.81;;;-142.75;73.20
41632;BME280;37452;51.938;4.624;2023-08-07T10:48:19;75952.25;;;-142.75;74.86
41632;BME280;37452;51.938;4.624;2023-08-07T10:50:56;75940.44;;;-142.75;73.23
41632;BME280;37452;51.938;4.624;2023-08-07T10:53:42;75932.56;;;-142.75;77.16
41632;BME280;37452;51.938;4.624;2023-08-07T10:56:17;75934.53;;;-142.75;73.61
41632;BME280;37452;51.938;4.624;2023-08-07T10:58:48;75920.75;;;-142.75;72.94
41632;BME280;37452;51.938;4.624;2023-08-07T11:01:41;75936.50;;;-142.75;73.92
41632;BME280;37452;51.938;4.624;2023-08-07T11:04:08;75928.63;;;-142.75;73.40
41632;BME280;37452;51.938;4.624;2023-08-07T11:06:36;75897.13;;;-142.75;74.96
41632;BME280;37452;51.938;4.624;2023-08-07T11:09:04;75928.63;;;-142.75;73.25
41632;BME280;37452;51.938;4.624;2023-08-07T11:11:39;75881.38;;;-142.75;76.58
41632;BME280;37452;51.938;4.624;2023-08-07T11:14:31;75916.81;;;-142.75;73.31
41632;BME280;37452;51.938;4.624;2023-08-07T11:16:58;75903.03;;;-142.75;74.35
41632;BME280;37452;51.938;4.624;2023-08-07T11:19:24;75881.38;;;-142.75;74.59
41632;BME280;37452;51.938;4.624;2023-08-07T11:21:49;75908.94;;;-142.75;73.95
41632;BME280;37452;51.938;4.624;2023-08-07T11:24:16;75952.25;;;-142.75;74.61
41632;BME280;37452;51.938;4.624;2023-08-07T11:26:44;75918.78;;;-142.75;73.96
41632;BME280;37452;51.938;4.624;2023-08-07T11:29:10;75903.03;;;-142.75;71.10
41632;BME280;37452;51.938;4.624;2023-08-07T11:31:35;75895.16;;;-142.75;69.90
41632;BME280;37452;51.938;4.624;2023-08-07T11:34:00;75877.44;;;-142.75;69.92
41632;BME280;37452;51.938;4.624;2023-08-07T11:36:28;75842.03;;;-142.75;69.29
41632;BME280;37452;51.938;4.624;2023-08-07T11:38:53;75853.84;;;-142.75;66.86
41632;BME280;37452;51.938;4.624;2023-08-07T11:41:19;75828.25;;;-142.75;69.39
41632;BME280;37452;51.938;4.624;2023-08-07T11:43:45;75885.31;;;-142.75;69.22
41632;BME280;37452;51.938;4.624;2023-08-07T11:46:12;75944.38;;;-142.75;70.93
41632;BME280;37452;51.938;4.624;2023-08-07T11:48:39;75944.38;;;-142.75;73.11
41632;BME280;37452;51.938;4.624;2023-08-07T11:51:06;75922.72;;;-142.75;72.69
41632;BME280;37452;51.938;4.624;2023-08-07T11:53:39;75954.22;;;-142.75;73.56
41632;BME280;37452;51.938;4.624;2023-08-07T11:56:10;75936.50;;;-142.75;73.55
41632;BME280;37452;51.938;4.624;2023-08-07T11:58:47;75954.22;;;-142.75;75.64
41632;BME280;37452;51.938;4.624;2023-08-07T12:01:17;75930.59;;;-142.75;76.50
41632;BME280;37452;51.938;4.624;2023-08-07T12:03:52;76007.34;;;-142.75;78.80
41632;BME280;37452;51.938;4.624;2023-08-07T12:06:18;75967.97;;;-142.75;78.42
41632;BME280;37452;51.938;4.624;2023-08-07T12:08:43;75973.88;;;-142.75;79.97
41632;BME280;37452;51.938;4.624;2023-08-07T12:11:11;76027.03;;;-142.75;77.89
41632;BME280;37452;51.938;4.624;2023-08-07T12:13:41;76030.97;;;-142.75;76.75
41632;BME280;37452;51.938;4.624;2023-08-07T12:16:07;76082.13;;;-142.75;77.80
41632;BME280;37452;51.938;4.624;2023-08-07T12:18:34;76103.78;;;-142.75;79.18
41632;BME280;37452;51.938;4.624;2023-08-07T12:21:06;76162.84;;;-142.75;80.14
41632;BME280;37452;51.938;4.624;2023-08-07T12:23:36;76176.63;;;-142.75;83.20
41632;BME280;37452;51.938;4.624;2023-08-07T12:26:03;76196.31;;;-142.75;84.47
41632;BME280;37452;51.938;4.624;2023-08-07T12:28:28;76210.06;;;-142.75;87.25
41632;BME280;37452;51.938;4.624;2023-08-07T12:30:54;76239.59;;;-142.75;84.87
41632;BME280;37452;51.938;4.624;2023-08-07T12:33:19;76251.41;;;-142.75;85.26
41632;BME280;37452;51.938;4.624;2023-08-07T12:35:45;76304.56;;;-142.75;87.42
41632;BME280;37452;51.938;4.624;2023-08-07T12:38:11;76288.81;;;-142.75;92.41